sensor_id;sensor_type;location;lat;lon;timestamp;pressure;altitude;pressure_sealevel;temperature;humidity
6349;BME280;3207;42.648;23.406;2023-04-24T00:01:25;99234.13;;;18.56;nan
6349;BME280;3207;42.648;23.406;2023-04-24T00:03:52;99229.97;;;18.62;nan
6349;BME280;3207;42.648;23.406;2023-04-24T00:06:19;99231.44;;;18.64;nan
6349;BME280;3207;42.648;23.406;2023-04-24T00:08:45;99226.13;;;18.64;nan
6349;BME280;3207;42.648;23.406;2023-04-24T00:11:12;99229.63;;;18.57;nan
6349;BME280;3207;42.648;23.406;2023-04-24T00:13:40;99221.50;;;18.44;nan
6349;BME280;3207;42.648;23.406;2023-04-24T00:16:07;99222.88;;;18.54;nan
6349;BME280;3207;42.648;23.406;2023-04-24T00:18:34;99231.31;;;18.58;nan
6349;BME280;3207;42.648;23.406;2023-04-24T00:21:01;99230.50;;;18.57;nan
6349;BME280;3207;42.648;23.406;2023-04-24T00:23:28;99217.78;;;18.53;nan
6349;BME280;3207;42.648;23.406;2023-04-24T00:25:54;99206.00;;;18.41;nan
6349;BME280;3207;42.648;23.406;2023-04-24T00:28:21;99215.22;;;18.45;nan
6349;BME280;3207;42.648;23.406;2023-04-24T00:30:49;99212.28;;;18.40;nan
6349;BME280;3207;42.648;23.406;2023-04-24T00:33:16;99205.84;;;18.42;nan
6349;BME280;3207;42.648;23.406;2023-04-24T00:35:43;99196.88;;;18.43;nan
6349;BME280;3207;42.648;23.406;2023-04-24T00:38:10;99180.06;;;18.36;nan
6349;BME280;3207;42.648;23.406;2023-04-24T00:40:36;99195.78;;;18.38;nan
6349;BME280;3207;42.648;23.406;2023-04-24T00:43:03;99191.13;;;18.40;nan
6349;BME280;3207;42.648;23.406;2023-04-24T00:45:30;99196.06;;;18.43;nan
6349;BME280;3207;42.648;23.406;2023-04-24T00:48:00;99192.78;;;18.41;nan
6349;BME280;3207;42.648;23.406;2023-04-24T00:50:27;99182.84;;;18.43;nan
6349;BME280;3207;42.648;23.406;2023-04-24T00:52:54;99176.50;;;18.44;nan
6349;BME280;3207;42.648;23.406;2023-04-24T00:55:21;99177.72;;;18.41;nan
6349;BME280;3207;42.648;23.406;2023-04-24T00:57:48;99164.03;;;18.38;nan
6349;BME280;3207;42.648;23.406;2023-04-24T01:00:16;99169.78;;;18.41;nan
6349;BME280;3207;42.648;23.406;2023-04-24T01:02:44;99178.16;;;18.30;nan
6349;BME280;3207;42.648;23.406;2023-04-24T01:05:13;99175.06;;;18.26;nan
6349;BME280;3207;42.648;23.406;2023-04-24T01:07:41;99165.22;;;18.20;nan
6349;BME280;3207;42.648;23.406;2023-04-24T01:10:11;99155.97;;;18.16;nan
6349;BME280;3207;42.648;23.406;2023-04-24T01:12:38;99152.59;;;18.08;nan
6349;BME280;3207;42.648;23.406;2023-04-24T01:15:06;99155.41;;;18.06;nan
6349;BME280;3207;42.648;23.406;2023-04-24T01:17:33;99146.31;;;18.09;nan
6349;BME280;3207;42.648;23.406;2023-04-24T01:20:00;99142.09;;;18.00;nan
6349;BME280;3207;42.648;23.406;2023-04-24T01:22:33;99149.56;;;17.96;nan
6349;BME280;3207;42.648;23.406;2023-04-24T01:25:01;99148.34;;;17.84;nan
6349;BME280;3207;42.648;23.406;2023-04-24T01:27:28;99149.66;;;17.88;nan
6349;BME280;3207;42.648;23.406;2023-04-24T01:29:55;99147.66;;;17.90;nan
6349;BME280;3207;42.648;23.406;2023-04-24T01:32:22;99131.06;;;17.96;nan
6349;BME280;3207;42.648;23.406;2023-04-24T01:34:49;99122.72;;;17.84;nan
6349;BME280;3207;42.648;23.406;2023-04-24T01:37:16;99130.13;;;17.89;nan
6349;BME280;3207;42.648;23.406;2023-04-24T01:39:45;99115.44;;;17.86;nan
6349;BME280;3207;42.648;23.406;2023-04-24T01:42:12;99115.97;;;17.82;nan
6349;BME280;3207;42.648;23.406;2023-04-24T01:44:40;99115.72;;;17.77;nan
6349;BME280;3207;42.648;23.406;2023-04-24T01:47:07;99111.59;;;17.74;nan
6349;BME280;3207;42.648;23.406;2023-04-24T01:49:34;99109.03;;;17.66;nan
6349;BME280;3207;42.648;23.406;2023-04-24T01:52:01;99108.06;;;17.59;nan
6349;BME280;3207;42.648;23.406;2023-04-24T01:54:28;99100.94;;;17.60;nan
6349;BME280;3207;42.648;23.406;2023-04-24T01:56:56;99098.31;;;17.60;nan
6349;BME280;3207;42.648;23.406;2023-04-24T01:59:23;99087.72;;;17.60;nan
6349;BME280;3207;42.648;23.406;2023-04-24T02:01:51;99086.28;;;17.57;nan
6349;BME280;3207;42.648;23.406;2023-04-24T02:04:18;99081.88;;;17.49;nan
6349;BME280;3207;42.648;23.406;2023-04-24T02:06:45;99093.75;;;17.53;nan
6349;BME280;3207;42.648;23.406;2023-04-24T02:09:12;99086.53;;;17.47;nan
6349;BME280;3207;42.648;23.406;2023-04-24T02:11:45;99089.88;;;17.41;nan
6349;BME280;3207;42.648;23.406;2023-04-24T02:14:13;99101.09;;;17.20;nan
6349;BME280;3207;42.648;23.406;2023-04-24T02:16:40;99087.97;;;17.12;nan
6349;BME280;3207;42.648;23.406;2023-04-24T02:19:08;99094.94;;;17.05;nan
6349;BME280;3207;42.648;23.406;2023-04-24T02:21:35;99096.47;;;17.00;nan
6349;BME280;3207;42.648;23.406;2023-04-24T02:24:02;99097.78;;;16.96;nan
6349;BME280;3207;42.648;23.406;2023-04-24T02:26:29;99092.50;;;16.96;nan
6349;BME280;3207;42.648;23.406;2023-04-24T02:28:57;99093.53;;;16.95;nan
6349;BME280;3207;42.648;23.406;2023-04-24T02:31:25;99085.63;;;16.95;nan
6349;BME280;3207;42.648;23.406;2023-04-24T02:33:51;99095.16;;;16.96;nan
6349;BME280;3207;42.648;23.406;2023-04-24T02:36:18;99094.69;;;16.92;nan
6349;BME280;3207;42.648;23.406;2023-04-24T02:38:45;99089.75;;;16.89;nan
6349;BME280;3207;42.648;23.406;2023-04-24T02:41:12;99077.78;;;16.78;nan
6349;BME280;3207;42.648;23.406;2023-04-24T02:43:39;99082.41;;;16.76;nan
6349;BME280;3207;42.648;23.406;2023-04-24T02:46:05;99078.13;;;16.75;nan
6349;BME280;3207;42.648;23.406;2023-04-24T02:48:34;99074.47;;;16.76;nan
6349;BME280;3207;42.648;23.406;2023-04-24T02:51:00;99071.19;;;16.74;nan
6349;BME280;3207;42.648;23.406;2023-04-24T02:53:27;99068.75;;;16.73;nan
6349;BME280;3207;42.648;23.406;2023-04-24T02:55:55;99078.47;;;16.72;nan
6349;BME280;3207;42.648;23.406;2023-04-24T02:58:22;99059.88;;;16.58;nan
6349;BME280;3207;42.648;23.406;2023-04-24T03:00:48;99060.88;;;16.57;nan
6349;BME280;3207;42.648;23.406;2023-04-24T03:03:15;99065.13;;;16.66;nan
6349;BME280;3207;42.648;23.406;2023-04-24T03:05:44;99058.22;;;16.65;nan
6349;BME280;3207;42.648;23.406;2023-04-24T03:08:11;99064.69;;;16.62;nan
6349;BME280;3207;42.648;23.406;2023-04-24T03:10:38;99054.94;;;16.55;nan
6349;BME280;3207;42.648;23.406;2023-04-24T03:13:04;99052.78;;;16.58;nan
6349;BME280;3207;42.648;23.406;2023-04-24T03:15:31;99047.56;;;16.50;nan
6349;BME280;3207;42.648;23.406;2023-04-24T03:17:58;99050.97;;;16.59;nan
6349;BME280;3207;42.648;23.406;2023-04-24T03:20:29;99050.16;;;16.58;nan
6349;BME280;3207;42.648;23.406;2023-04-24T03:22:57;99053.44;;;16.60;nan
6349;BME280;3207;42.648;23.406;2023-04-24T03:25:24;99051.81;;;16.59;nan
6349;BME280;3207;42.648;23.406;2023-04-24T03:27:51;99016.47;;;16.37;nan
6349;BME280;3207;42.648;23.406;2023-04-24T03:30:19;99047.19;;;16.61;nan
6349;BME280;3207;42.648;23.406;2023-04-24T03:32:46;99045.88;;;16.57;nan
6349;BME280;3207;42.648;23.406;2023-04-24T03:35:13;99032.34;;;16.60;nan
6349;BME280;3207;42.648;23.406;2023-04-24T03:37:40;99043.88;;;16.67;nan
6349;BME280;3207;42.648;23.406;2023-04-24T03:40:09;99033.66;;;16.64;nan
6349;BME280;3207;42.648;23.406;2023-04-24T03:42:36;99045.44;;;16.76;nan
6349;BME280;3207;42.648;23.406;2023-04-24T03:45:03;99051.38;;;16.78;nan
6349;BME280;3207;42.648;23.406;2023-04-24T03:47:30;99045.13;;;16.79;nan
6349;BME280;3207;42.648;23.406;2023-04-24T03:49:57;99028.97;;;16.74;nan
6349;BME280;3207;42.648;23.406;2023-04-24T03:52:24;99023.69;;;16.74;nan
6349;BME280;3207;42.648;23.406;2023-04-24T03:54:51;99034.56;;;16.79;nan
6349;BME280;3207;42.648;23.406;2023-04-24T03:57:19;99037.84;;;16.81;nan
6349;BME280;3207;42.648;23.406;2023-04-24T03:59:53;99047.25;;;16.84;nan
6349;BME280;3207;42.648;23.406;2023-04-24T04:02:21;99048.34;;;16.90;nan
6349;BME280;3207;42.648;23.406;2023-04-24T04:04:48;99034.81;;;16.93;nan
6349;BME280;3207;42.648;23.406;2023-04-24T04:07:15;99028.88;;;16.91;nan
6349;BME280;3207;42.648;23.406;2023-04-24T04:09:42;99035.56;;;17.01;nan
6349;BME280;3207;42.648;23.406;2023-04-24T04:12:10;99043.31;;;17.03;nan
6349;BME280;3207;42.648;23.406;2023-04-24T04:14:39;99040.00;;;17.01;nan
6349;BME280;3207;42.648;23.406;2023-04-24T04:17:06;99044.47;;;17.00;nan
6349;BME280;3207;42.648;23.406;2023-04-24T04:19:32;99036.72;;;16.99;nan
6349;BME280;3207;42.648;23.406;2023-04-24T04:22:00;99044.72;;;16.91;nan
6349;BME280;3207;42.648;23.406;2023-04-24T04:24:27;99050.31;;;16.88;nan
6349;BME280;3207;42.648;23.406;2023-04-24T04:26:54;99047.41;;;16.82;nan
6349;BME280;3207;42.648;23.406;2023-04-24T04:29:22;99049.41;;;16.80;nan
6349;BME280;3207;42.648;23.406;2023-04-24T04:31:50;99054.34;;;16.83;nan
6349;BME280;3207;42.648;23.406;2023-04-24T04:34:17;99059.06;;;16.88;nan
6349;BME280;3207;42.648;23.406;2023-04-24T04:36:44;99055.09;;;16.61;nan
6349;BME280;3207;42.648;23.406;2023-04-24T04:39:11;99056.22;;;16.67;nan
6349;BME280;3207;42.648;23.406;2023-04-24T04:41:39;99058.00;;;16.74;nan
6349;BME280;3207;42.648;23.406;2023-04-24T04:44:06;99057.66;;;16.77;nan
6349;BME280;3207;42.648;23.406;2023-04-24T04:46:34;99055.19;;;16.76;nan
6349;BME280;3207;42.648;23.406;2023-04-24T04:49:04;99059.63;;;16.75;nan
6349;BME280;3207;42.648;23.406;2023-04-24T04:51:31;99063.31;;;16.66;nan
6349;BME280;3207;42.648;23.406;2023-04-24T04:53:58;99061.13;;;16.78;nan
6349;BME280;3207;42.648;23.406;2023-04-24T04:56:25;99062.88;;;16.86;nan
6349;BME280;3207;42.648;23.406;2023-04-24T04:58:51;99066.66;;;16.91;nan
6349;BME280;3207;42.648;23.406;2023-04-24T05:01:18;99069.78;;;16.95;nan
6349;BME280;3207;42.648;23.406;2023-04-24T05:03:45;99072.41;;;16.95;nan
6349;BME280;3207;42.648;23.406;2023-04-24T05:06:13;99071.69;;;17.01;nan
6349;BME280;3207;42.648;23.406;2023-04-24T05:08:40;99033.25;;;16.75;nan
6349;BME280;3207;42.648;23.406;2023-04-24T05:11:07;99067.25;;;17.01;nan
6349;BME280;3207;42.648;23.406;2023-04-24T05:13:34;99065.41;;;17.02;nan
6349;BME280;3207;42.648;23.406;2023-04-24T05:16:01;99065.06;;;17.05;nan
6349;BME280;3207;42.648;23.406;2023-04-24T05:18:28;99059.16;;;17.03;nan
6349;BME280;3207;42.648;23.406;2023-04-24T05:20:55;99063.06;;;17.07;nan
6349;BME280;3207;42.648;23.406;2023-04-24T05:23:23;99070.94;;;17.15;nan
6349;BME280;3207;42.648;23.406;2023-04-24T05:25:50;99067.94;;;17.18;nan
6349;BME280;3207;42.648;23.406;2023-04-24T05:28:17;99073.69;;;17.22;nan
6349;BME280;3207;42.648;23.406;2023-04-24T05:30:44;99069.22;;;17.22;nan
6349;BME280;3207;42.648;23.406;2023-04-24T05:33:11;99073.34;;;17.25;nan
6349;BME280;3207;42.648;23.406;2023-04-24T05:35:40;99074.78;;;17.27;nan
6349;BME280;3207;42.648;23.406;2023-04-24T05:38:11;99085.66;;;17.32;nan
6349;BME280;3207;42.648;23.406;2023-04-24T05:40:39;99083.38;;;17.29;nan
6349;BME280;3207;42.648;23.406;2023-04-24T05:43:06;99082.66;;;17.35;nan
6349;BME280;3207;42.648;23.406;2023-04-24T05:45:33;99080.38;;;17.32;nan
6349;BME280;3207;42.648;23.406;2023-04-24T05:48:01;99088.47;;;17.31;nan
6349;BME280;3207;42.648;23.406;2023-04-24T05:50:28;99077.91;;;17.31;nan
6349;BME280;3207;42.648;23.406;2023-04-24T05:52:55;99085.19;;;17.29;nan
6349;BME280;3207;42.648;23.406;2023-04-24T05:55:23;99078.63;;;17.25;nan
6349;BME280;3207;42.648;23.406;2023-04-24T05:57:52;99089.72;;;17.20;nan
6349;BME280;3207;42.648;23.406;2023-04-24T06:00:19;99076.50;;;17.20;nan
6349;BME280;3207;42.648;23.406;2023-04-24T06:02:47;99090.25;;;17.15;nan
6349;BME280;3207;42.648;23.406;2023-04-24T06:05:14;99085.31;;;17.12;nan
6349;BME280;3207;42.648;23.406;2023-04-24T06:07:41;99083.19;;;17.08;nan
6349;BME280;3207;42.648;23.406;2023-04-24T06:10:08;99081.78;;;16.97;nan
6349;BME280;3207;42.648;23.406;2023-04-24T06:12:35;99087.53;;;17.01;nan
6349;BME280;3207;42.648;23.406;2023-04-24T06:15:05;99087.53;;;17.01;nan
6349;BME280;3207;42.648;23.406;2023-04-24T06:17:35;99082.25;;;17.01;nan
6349;BME280;3207;42.648;23.406;2023-04-24T06:20:02;99094.13;;;17.05;nan
6349;BME280;3207;42.648;23.406;2023-04-24T06:22:31;99096.22;;;17.09;nan
6349;BME280;3207;42.648;23.406;2023-04-24T06:24:59;99086.81;;;17.07;nan
6349;BME280;3207;42.648;23.406;2023-04-24T06:27:26;99090.59;;;17.12;nan
6349;BME280;3207;42.648;23.406;2023-04-24T06:29:52;99088.31;;;17.09;nan
6349;BME280;3207;42.648;23.406;2023-04-24T06:32:22;99093.59;;;17.09;nan
6349;BME280;3207;42.648;23.406;2023-04-24T06:34:50;99090.44;;;17.14;nan
6349;BME280;3207;42.648;23.406;2023-04-24T06:37:18;99089.78;;;17.12;nan
6349;BME280;3207;42.648;23.406;2023-04-24T06:39:45;99087.97;;;17.12;nan
6349;BME280;3207;42.648;23.406;2023-04-24T06:42:11;99088.19;;;17.03;nan
6349;BME280;3207;42.648;23.406;2023-04-24T06:44:38;99096.13;;;17.03;nan
6349;BME280;3207;42.648;23.406;2023-04-24T06:47:17;99084.13;;;16.92;nan
6349;BME280;3207;42.648;23.406;2023-04-24T06:49:53;99082.44;;;16.68;nan
6349;BME280;3207;42.648;23.406;2023-04-24T06:52:20;99071.25;;;16.66;nan
6349;BME280;3207;42.648;23.406;2023-04-24T06:54:47;99083.72;;;16.80;nan
6349;BME280;3207;42.648;23.406;2023-04-24T06:57:14;99084.81;;;16.86;nan
6349;BME280;3207;42.648;23.406;2023-04-24T06:59:41;99076.72;;;16.88;nan
6349;BME280;3207;42.648;23.406;2023-04-24T07:02:08;99089.53;;;16.99;nan
6349;BME280;3207;42.648;23.406;2023-04-24T07:04:35;99091.88;;;16.94;nan
6349;BME280;3207;42.648;23.406;2023-04-24T07:07:03;99094.75;;;16.84;nan
6349;BME280;3207;42.648;23.406;2023-04-24T07:09:32;99087.03;;;16.74;nan
6349;BME280;3207;42.648;23.406;2023-04-24T07:12:00;99085.78;;;16.62;nan
6349;BME280;3207;42.648;23.406;2023-04-24T07:14:27;99091.22;;;16.61;nan
6349;BME280;3207;42.648;23.406;2023-04-24T07:16:54;99094.69;;;16.53;nan
6349;BME280;3207;42.648;23.406;2023-04-24T07:19:22;99095.31;;;16.71;nan
6349;BME280;3207;42.648;23.406;2023-04-24T07:21:49;99090.16;;;16.78;nan
6349;BME280;3207;42.648;23.406;2023-04-24T07:24:17;99086.13;;;16.90;nan
6349;BME280;3207;42.648;23.406;2023-04-24T07:26:44;99088.06;;;16.96;nan
6349;BME280;3207;42.648;23.406;2023-04-24T07:29:12;99080.63;;;17.00;nan
6349;BME280;3207;42.648;23.406;2023-04-24T07:31:39;99083.56;;;17.05;nan
6349;BME280;3207;42.648;23.406;2023-04-24T07:34:07;99077.91;;;17.08;nan
6349;BME280;3207;42.648;23.406;2023-04-24T07:36:33;99079.22;;;17.12;nan
6349;BME280;3207;42.648;23.406;2023-04-24T07:39:00;99081.09;;;17.26;nan
6349;BME280;3207;42.648;23.406;2023-04-24T07:41:29;99076.56;;;17.35;nan
6349;BME280;3207;42.648;23.406;2023-04-24T07:43:56;99072.69;;;17.60;nan
6349;BME280;3207;42.648;23.406;2023-04-24T07:46:22;99064.84;;;17.75;nan
6349;BME280;3207;42.648;23.406;2023-04-24T07:48:50;99086.13;;;18.11;nan
6349;BME280;3207;42.648;23.406;2023-04-24T07:51:17;99080.97;;;18.24;nan
6349;BME280;3207;42.648;23.406;2023-04-24T07:53:44;99084.28;;;18.41;nan
6349;BME280;3207;42.648;23.406;2023-04-24T07:56:10;99074.66;;;18.54;nan
6349;BME280;3207;42.648;23.406;2023-04-24T07:58:39;99070.28;;;18.47;nan
6349;BME280;3207;42.648;23.406;2023-04-24T08:01:06;99056.81;;;18.42;nan
6349;BME280;3207;42.648;23.406;2023-04-24T08:03:33;99074.28;;;18.72;nan
6349;BME280;3207;42.648;23.406;2023-04-24T08:06:00;99071.69;;;18.93;nan
6349;BME280;3207;42.648;23.406;2023-04-24T08:08:27;99065.75;;;19.13;nan
6349;BME280;3207;42.648;23.406;2023-04-24T08:10:53;99068.13;;;19.29;nan
6349;BME280;3207;42.648;23.406;2023-04-24T08:13:20;99068.25;;;19.42;nan
6349;BME280;3207;42.648;23.406;2023-04-24T08:15:49;99069.25;;;19.41;nan
6349;BME280;3207;42.648;23.406;2023-04-24T08:18:15;99073.19;;;19.45;nan
6349;BME280;3207;42.648;23.406;2023-04-24T08:20:42;99071.72;;;19.43;nan
6349;BME280;3207;42.648;23.406;2023-04-24T08:23:10;99068.72;;;19.24;nan
6349;BME280;3207;42.648;23.406;2023-04-24T08:25:37;99061.97;;;19.22;nan
6349;BME280;3207;42.648;23.406;2023-04-24T08:28:06;99063.88;;;19.28;nan
6349;BME280;3207;42.648;23.406;2023-04-24T08:30:33;99062.81;;;19.29;nan
6349;BME280;3207;42.648;23.406;2023-04-24T08:33:01;99066.88;;;19.25;nan
6349;BME280;3207;42.648;23.406;2023-04-24T08:35:28;99065.19;;;19.38;nan
6349;BME280;3207;42.648;23.406;2023-04-24T08:37:54;99061.50;;;19.39;nan
6349;BME280;3207;42.648;23.406;2023-04-24T08:40:26;99063.22;;;19.47;nan
6349;BME280;3207;42.648;23.406;2023-04-24T08:42:54;99073.06;;;19.53;nan
6349;BME280;3207;42.648;23.406;2023-04-24T08:45:21;99077.13;;;19.49;nan
6349;BME280;3207;42.648;23.406;2023-04-24T08:47:49;99082.44;;;19.49;nan
6349;BME280;3207;42.648;23.406;2023-04-24T08:50:18;99081.66;;;19.55;nan
6349;BME280;3207;42.648;23.406;2023-04-24T08:52:45;99090.25;;;19.57;nan
6349;BME280;3207;42.648;23.406;2023-04-24T08:55:11;99078.38;;;19.53;nan
6349;BME280;3207;42.648;23.406;2023-04-24T08:57:40;99080.00;;;19.54;nan
6349;BME280;3207;42.648;23.406;2023-04-24T09:00:07;99073.00;;;19.47;nan
6349;BME280;3207;42.648;23.406;2023-04-24T09:02:34;99089.72;;;19.47;nan
6349;BME280;3207;42.648;23.406;2023-04-24T09:05:01;99080.50;;;19.43;nan
6349;BME280;3207;42.648;23.406;2023-04-24T09:07:32;99068.03;;;19.37;nan
6349;BME280;3207;42.648;23.406;2023-04-24T09:10:02;99083.16;;;19.43;nan
6349;BME280;3207;42.648;23.406;2023-04-24T09:12:29;99075.16;;;19.36;nan
6349;BME280;3207;42.648;23.406;2023-04-24T09:14:56;99075.81;;;19.45;nan
6349;BME280;3207;42.648;23.406;2023-04-24T09:17:24;99083.66;;;19.53;nan
6349;BME280;3207;42.648;23.406;2023-04-24T09:19:52;99082.91;;;19.59;nan
6349;BME280;3207;42.648;23.406;2023-04-24T09:22:20;99086.19;;;19.61;nan
6349;BME280;3207;42.648;23.406;2023-04-24T09:24:48;99088.00;;;19.61;nan
6349;BME280;3207;42.648;23.406;2023-04-24T09:27:15;99086.88;;;19.70;nan
6349;BME280;3207;42.648;23.406;2023-04-24T09:29:53;99093.16;;;19.90;nan
6349;BME280;3207;42.648;23.406;2023-04-24T09:32:21;99087.25;;;19.95;nan
6349;BME280;3207;42.648;23.406;2023-04-24T09:35:05;99089.81;;;20.16;nan
6349;BME280;3207;42.648;23.406;2023-04-24T09:37:35;99085.47;;;20.36;nan
6349;BME280;3207;42.648;23.406;2023-04-24T09:40:11;99088.44;;;20.55;nan
6349;BME280;3207;42.648;23.406;2023-04-24T09:42:38;99095.44;;;20.75;nan
6349;BME280;3207;42.648;23.406;2023-04-24T09:45:08;99083.63;;;20.85;nan
6349;BME280;3207;42.648;23.406;2023-04-24T09:47:36;99088.75;;;20.99;nan
6349;BME280;3207;42.648;23.406;2023-04-24T09:50:09;99087.34;;;21.03;nan
6349;BME280;3207;42.648;23.406;2023-04-24T09:52:39;99088.16;;;21.04;nan
6349;BME280;3207;42.648;23.406;2023-04-24T09:55:13;99094.34;;;21.17;nan
6349;BME280;3207;42.648;23.406;2023-04-24T09:57:47;99082.94;;;21.37;nan
6349;BME280;3207;42.648;23.406;2023-04-24T10:00:18;99087.81;;;21.53;nan
6349;BME280;3207;42.648;23.406;2023-04-24T10:02:50;99091.09;;;21.62;nan
6349;BME280;3207;42.648;23.406;2023-04-24T10:05:17;99077.19;;;21.66;nan
6349;BME280;3207;42.648;23.406;2023-04-24T10:07:44;99085.56;;;21.63;nan
6349;BME280;3207;42.648;23.406;2023-04-24T10:10:13;99081.09;;;21.57;nan
6349;BME280;3207;42.648;23.406;2023-04-24T10:12:40;99082.94;;;21.50;nan
6349;BME280;3207;42.648;23.406;2023-04-24T10:15:10;99082.91;;;21.43;nan
6349;BME280;3207;42.648;23.406;2023-04-24T10:17:39;99082.09;;;21.30;nan
6349;BME280;3207;42.648;23.406;2023-04-24T10:20:07;99087.59;;;21.22;nan
6349;BME280;3207;42.648;23.406;2023-04-24T10:22:35;99076.50;;;21.11;nan
6349;BME280;3207;42.648;23.406;2023-04-24T10:25:04;99083.47;;;21.06;nan
6349;BME280;3207;42.648;23.406;2023-04-24T10:27:34;99089.31;;;20.81;nan
6349;BME280;3207;42.648;23.406;2023-04-24T10:30:03;99079.22;;;20.51;nan
6349;BME280;3207;42.648;23.406;2023-04-24T10:32:29;99089.75;;;20.37;nan
6349;BME280;3207;42.648;23.406;2023-04-24T10:34:56;99084.22;;;20.04;nan
6349;BME280;3207;42.648;23.406;2023-04-24T10:37:24;99078.34;;;20.09;nan
6349;BME280;3207;42.648;23.406;2023-04-24T10:39:52;99080.50;;;19.64;nan
6349;BME280;3207;42.648;23.406;2023-04-24T10:42:20;99077.22;;;19.62;nan
6349;BME280;3207;42.648;23.406;2023-04-24T10:44:57;99073.94;;;19.39;nan
6349;BME280;3207;42.648;23.406;2023-04-24T10:47:24;99079.63;;;19.15;nan
6349;BME280;3207;42.648;23.406;2023-04-24T10:49:51;99081.78;;;19.26;nan
6349;BME280;3207;42.648;23.406;2023-04-24T10:52:18;99079.13;;;19.26;nan
6349;BME280;3207;42.648;23.406;2023-04-24T10:54:46;99069.53;;;19.25;nan
6349;BME280;3207;42.648;23.406;2023-04-24T10:57:27;99077.22;;;19.20;nan
6349;BME280;3207;42.648;23.406;2023-04-24T11:00:19;99076.47;;;19.26;nan
6349;BME280;3207;42.648;23.406;2023-04-24T11:02:50;99076.06;;;19.29;nan
6349;BME280;3207;42.648;23.406;2023-04-24T11:05:19;99075.88;;;19.30;nan
6349;BME280;3207;42.648;23.406;2023-04-24T11:08:15;99070.66;;;19.37;nan
6349;BME280;3207;42.648;23.406;2023-04-24T11:10:46;99072.09;;;19.39;nan
6349;BME280;3207;42.648;23.406;2023-04-24T11:13:15;99076.16;;;19.35;nan
6349;BME280;3207;42.648;23.406;2023-04-24T11:15:43;99069.22;;;19.34;nan
6349;BME280;3207;42.648;23.406;2023-04-24T11:18:14;99067.63;;;19.40;nan
6349;BME280;3207;42.648;23.406;2023-04-24T11:20:42;99076.56;;;19.39;nan
6349;BME280;3207;42.648;23.406;2023-04-24T11:23:12;99072.09;;;19.39;nan
6349;BME280;3207;42.648;23.406;2023-04-24T11:25:39;99075.34;;;19.35;nan
6349;BME280;3207;42.648;23.406;2023-04-24T11:28:06;99072.81;;;19.27;nan
6349;BME280;3207;42.648;23.406;2023-04-24T11:30:33;99071.91;;;19.20;nan
6349;BME280;3207;42.648;23.406;2023-04-24T11:33:08;99069.41;;;19.12;nan
6349;BME280;3207;42.648;23.406;2023-04-24T11:35:35;99061.59;;;19.04;nan
6349;BME280;3207;42.648;23.406;2023-04-24T11:38:06;99059.31;;;19.00;nan
6349;BME280;3207;42.648;23.406;2023-04-24T11:40:34;99055.78;;;18.93;nan
6349;BME280;3207;42.648;23.406;2023-04-24T11:43:04;99059.44;;;18.92;nan
6349;BME280;3207;42.648;23.406;2023-04-24T11:45:34;99052.00;;;18.81;nan
6349;BME280;3207;42.648;23.406;2023-04-24T11:48:02;99055.00;;;18.78;nan
6349;BME280;3207;42.648;23.406;2023-04-24T11:50:30;99041.63;;;18.65;nan
6349;BME280;3207;42.648;23.406;2023-04-24T11:52:57;99035.44;;;18.58;nan
6349;BME280;3207;42.648;23.406;2023-04-24T11:55:27;99028.69;;;18.41;nan
6349;BME280;3207;42.648;23.406;2023-04-24T11:57:55;99030.72;;;18.39;nan
6349;BME280;3207;42.648;23.406;2023-04-24T12:00:25;99031.28;;;18.19;nan
6349;BME280;3207;42.648;23.406;2023-04-24T12:03:04;99027.09;;;18.10;nan
6349;BME280;3207;42.648;23.406;2023-04-24T12:05:33;99018.16;;;18.11;nan
6349;BME280;3207;42.648;23.406;2023-04-24T12:08:01;99021.34;;;17.92;nan
6349;BME280;3207;42.648;23.406;2023-04-24T12:10:29;99022.88;;;18.01;nan
6349;BME280;3207;42.648;23.406;2023-04-24T12:12:57;99016.06;;;18.07;nan
6349;BME280;3207;42.648;23.406;2023-04-24T12:15:26;99017.00;;;17.99;nan
6349;BME280;3207;42.648;23.406;2023-04-24T12:17:54;99014.06;;;17.94;nan
6349;BME280;3207;42.648;23.406;2023-04-24T12:20:24;99010.75;;;17.92;nan
6349;BME280;3207;42.648;23.406;2023-04-24T12:22:54;99008.88;;;17.86;nan
6349;BME280;3207;42.648;23.406;2023-04-24T12:25:23;99007.31;;;17.77;nan
6349;BME280;3207;42.648;23.406;2023-04-24T12:27:53;99000.66;;;17.81;nan
6349;BME280;3207;42.648;23.406;2023-04-24T12:30:21;98953.59;;;17.47;nan
6349;BME280;3207;42.648;23.406;2023-04-24T12:32:52;98978.50;;;17.82;nan
6349;BME280;3207;42.648;23.406;2023-04-24T12:35:21;98978.56;;;18.03;nan
6349;BME280;3207;42.648;23.406;2023-04-24T12:37:48;98975.84;;;18.11;nan
6349;BME280;3207;42.648;23.406;2023-04-24T12:40:18;98967.88;;;18.26;nan
6349;BME280;3207;42.648;23.406;2023-04-24T12:42:46;98952.59;;;18.43;nan
6349;BME280;3207;42.648;23.406;2023-04-24T12:45:14;98949.53;;;18.60;nan
6349;BME280;3207;42.648;23.406;2023-04-24T12:47:41;98949.16;;;18.63;nan
6349;BME280;3207;42.648;23.406;2023-04-24T12:50:10;98944.16;;;18.54;nan
6349;BME280;3207;42.648;23.406;2023-04-24T12:52:37;98942.13;;;18.56;nan
6349;BME280;3207;42.648;23.406;2023-04-24T12:55:05;98939.47;;;18.56;nan
6349;BME280;3207;42.648;23.406;2023-04-24T12:57:36;98941.50;;;18.54;nan
6349;BME280;3207;42.648;23.406;2023-04-24T13:00:05;98930.47;;;18.50;nan
6349;BME280;3207;42.648;23.406;2023-04-24T13:02:32;98911.34;;;18.34;nan
6349;BME280;3207;42.648;23.406;2023-04-24T13:05:00;98922.69;;;18.27;nan
6349;BME280;3207;42.648;23.406;2023-04-24T13:07:27;98923.00;;;18.18;nan
6349;BME280;3207;42.648;23.406;2023-04-24T13:09:55;98938.41;;;18.14;nan
6349;BME280;3207;42.648;23.406;2023-04-24T13:12:22;98957.69;;;18.08;nan
6349;BME280;3207;42.648;23.406;2023-04-24T13:14:52;98971.84;;;17.86;nan
6349;BME280;3207;42.648;23.406;2023-04-24T13:17:19;98980.44;;;17.88;nan
6349;BME280;3207;42.648;23.406;2023-04-24T13:19:46;98983.78;;;17.82;nan
6349;BME280;3207;42.648;23.406;2023-04-24T13:22:12;98979.34;;;17.68;nan
6349;BME280;3207;42.648;23.406;2023-04-24T13:24:40;98982.84;;;17.60;nan
6349;BME280;3207;42.648;23.406;2023-04-24T13:27:08;98979.19;;;17.61;nan
6349;BME280;3207;42.648;23.406;2023-04-24T13:29:35;98986.41;;;17.52;nan
6349;BME280;3207;42.648;23.406;2023-04-24T13:32:03;98981.56;;;17.56;nan
6349;BME280;3207;42.648;23.406;2023-04-24T13:34:30;98985.72;;;17.21;nan
6349;BME280;3207;42.648;23.406;2023-04-24T13:36:58;98979.47;;;16.99;nan